Time;durP1;ratioP1;P1;durP2;ratioP2;P2;SDS_P1;SDS_P2;PMS_P1;PMS_P2;Temp;Humidity;BMP_temperature;BMP_pressure;BME280_temperature;BME280_humidity;BME280_pressure;Samples;Min_cycle;Max_cycle;Signal;HPM_P1;HPM_P2
2023/04/13 00:00:43;;;;;;;1025.28;31.80;;;;;;;6.34;100.00;91333.13;5144320;27;20515;-77
2023/04/13 00:03:11;;;;;;;272.65;12.48;;;;;;;6.27;100.00;91337.16;5146459;27;20027;-78
2023/04/13 00:05:40;;;;;;;202.65;10.77;;;;;;;6.24;100.00;91341.09;5127180;27;20191;-78
2023/04/13 00:08:07;;;;;;;518.95;18.38;;;;;;;6.20;100.00;91327.91;5131703;27;20091;-78
2023/04/13 00:10:35;;;;;;;849.03;27.70;;;;;;;6.19;100.00;91322.97;5128398;27;20079;-78
2023/04/13 00:13:02;;;;;;;281.23;11.43;;;;;;;6.18;100.00;91311.81;5128013;27;20109;-78
2023/04/13 00:15:27;;;;;;;48.55;7.82;;;;;;;6.20;100.00;91316.75;5112951;27;20080;-78
2023/04/13 00:17:53;;;;;;;128.15;10.02;;;;;;;6.20;100.00;91299.31;5130855;27;20091;-78
2023/04/13 00:20:18;;;;;;;9.35;6.63;;;;;;;6.22;100.00;91302.41;5149938;27;20114;-77
2023/04/13 00:22:45;;;;;;;9.30;7.30;;;;;;;6.22;100.00;91289.41;5144390;27;20544;-78
2023/04/13 00:25:15;;;;;;;9.65;7.15;;;;;;;6.24;100.00;91286.53;5125835;27;20130;-78
2023/04/13 00:27:42;;;;;;;8.13;6.65;;;;;;;6.22;100.00;91283.44;5149501;27;20022;-78
2023/04/13 00:30:12;;;;;;;9.05;6.43;;;;;;;6.21;100.00;91287.88;5134700;27;20075;-78
2023/04/13 00:32:41;;;;;;;8.10;6.53;;;;;;;6.18;100.00;91283.25;5126875;27;20046;-78
2023/04/13 00:35:10;;;;;;;8.77;6.50;;;;;;;6.17;100.00;91278.31;5110796;27;20030;-78
2023/04/13 00:37:37;;;;;;;8.73;6.70;;;;;;;6.16;100.00;91274.97;5128060;27;20046;-78
2023/04/13 00:40:07;;;;;;;9.38;7.15;;;;;;;6.17;100.00;91270.53;5131291;27;20027;-78
2023/04/13 00:42:33;;;;;;;8.27;6.75;;;;;;;6.16;100.00;91256.78;5145630;27;20133;-78
2023/04/13 00:44:59;;;;;;;8.48;6.40;;;;;;;6.17;100.00;91250.53;5109229;27;20034;-78
2023/04/13 00:47:31;;;;;;;8.27;6.15;;;;;;;6.15;100.00;91236.28;5111883;27;20397;-78
2023/04/13 00:50:00;;;;;;;7.43;5.72;;;;;;;6.16;100.00;91230.78;5131245;27;20023;-78
2023/04/13 00:52:26;;;;;;;8.18;6.32;;;;;;;6.18;100.00;91225.31;5147690;27;20030;-78
2023/04/13 00:54:55;;;;;;;8.75;6.40;;;;;;;6.20;100.00;91212.81;5126857;27;20060;-78
2023/04/13 00:57:22;;;;;;;9.00;7.03;;;;;;;6.20;100.00;91208.38;5133836;27;20034;-78
2023/04/13 00:59:49;;;;;;;8.30;6.07;;;;;;;6.41;100.00;91203.53;5125428;27;20506;-78
2023/04/13 01:02:15;;;;;;;7.32;5.70;;;;;;;6.63;100.00;91196.84;5132265;27;20046;-78
2023/04/13 01:04:44;;;;;;;6.45;4.78;;;;;;;6.64;100.00;91198.38;5128745;27;20084;-77
2023/04/13 01:07:40;;;;;;;8.48;5.97;;;;;;;6.57;100.00;91198.00;5128862;27;20039;-78
2023/04/13 01:10:11;;;;;;;6.63;5.05;;;;;;;6.44;100.00;91197.75;5138903;27;20050;-78
2023/04/13 01:12:43;;;;;;;5.82;4.32;;;;;;;6.32;100.00;91189.69;5130644;27;20031;-77
2023/04/13 01:15:15;;;;;;;6.22;4.72;;;;;;;6.23;100.00;91184.38;5127762;27;20125;-78
2023/04/13 01:17:47;;;;;;;5.22;3.92;;;;;;;6.19;100.00;91180.06;5129262;27;20035;-77
2023/04/13 01:20:15;;;;;;;3.92;2.70;;;;;;;6.16;100.00;91175.47;5149417;27;20392;-78
2023/04/13 01:22:46;;;;;;;4.05;2.42;;;;;;;6.16;100.00;91167.66;5135200;27;20019;-77
2023/04/13 01:25:36;;;;;;;4.50;2.80;;;;;;;6.13;100.00;91169.03;5149007;27;20412;-78
2023/04/13 01:28:06;;;;;;;4.38;2.88;;;;;;;6.14;100.00;91180.19;5128059;27;20126;-77
2023/04/13 01:30:35;;;;;;;3.67;2.33;;;;;;;6.10;100.00;91181.81;5129424;27;20069;-77
2023/04/13 01:33:02;;;;;;;3.80;2.53;;;;;;;6.10;100.00;91189.59;5127950;27;20456;-77
2023/04/13 01:35:29;;;;;;;4.03;2.40;;;;;;;6.08;100.00;91189.91;5124299;27;20054;-77
2023/04/13 01:37:56;;;;;;;4.60;2.28;;;;;;;6.03;100.00;91183.00;5126680;27;20035;-77
2023/04/13 01:40:26;;;;;;;3.63;2.33;;;;;;;5.97;100.00;91184.13;5149153;27;20030;-77
2023/04/13 01:42:54;;;;;;;3.40;2.25;;;;;;;5.94;100.00;91176.91;5129151;27;20088;-77
2023/04/13 01:45:20;;;;;;;14.93;2.90;;;;;;;5.98;100.00;91182.31;5125453;27;20047;-77
2023/04/13 01:48:04;;;;;;;16.58;5.13;;;;;;;5.92;100.00;91184.22;5127368;27;20515;-77
2023/04/13 01:51:02;;;;;;;5.63;4.00;;;;;;;5.81;100.00;91185.47;5129504;27;20079;-76
2023/04/13 01:53:43;;;;;;;4.63;3.10;;;;;;;5.76;100.00;91194.09;5130644;27;20039;-78
2023/04/13 01:56:14;;;;;;;4.65;3.13;;;;;;;5.74;100.00;91190.25;5131188;27;20031;-78
2023/04/13 01:58:41;;;;;;;4.40;2.97;;;;;;;5.74;100.00;91185.03;5127988;27;20047;-77
2023/04/13 02:01:13;;;;;;;8.05;5.57;;;;;;;5.74;100.00;91185.03;5118294;27;20037;-77
2023/04/13 02:03:41;;;;;;;9.88;7.47;;;;;;;5.74;100.00;91191.03;5097256;27;20028;-77
2023/04/13 02:06:08;;;;;;;8.63;6.25;;;;;;;5.72;100.00;91181.97;5132854;27;20039;-78
2023/04/13 02:08:37;;;;;;;6.40;4.78;;;;;;;5.71;100.00;91191.59;5126173;27;20362;-77
2023/04/13 02:11:03;;;;;;;5.65;4.13;;;;;;;5.73;100.00;91193.91;5111102;27;20046;-77
2023/04/13 02:13:29;;;;;;;7.55;3.17;;;;;;;5.73;100.00;91197.28;5128424;27;20041;-76
2023/04/13 02:15:58;;;;;;;5.20;3.30;;;;;;;5.71;100.00;91196.78;5126363;27;20031;-77
2023/04/13 02:18:24;;;;;;;5.45;3.70;;;;;;;5.70;100.00;91181.50;5139542;27;20042;-77
2023/04/13 02:21:07;;;;;;;5.90;4.15;;;;;;;5.69;100.00;91187.75;5125921;27;20106;-77
2023/04/13 02:23:33;;;;;;;;;;;;;;;5.71;100.00;91196.78;5141418;27;20122;-77
2023/04/13 02:25:59;;;;;;;19.17;6.82;;;;;;;5.76;100.00;91188.88;5107612;27;19922;-77
2023/04/13 02:28:26;;;;;;;124.18;9.85;;;;;;;5.80;100.00;91178.72;5114191;27;20035;-77
2023/04/13 02:30:53;;;;;;;14.55;7.60;;;;;;;5.77;100.00;91169.69;5108872;27;20026;-77
2023/04/13 02:33:20;;;;;;;28.15;7.47;;;;;;;5.76;100.00;91173.31;5145730;27;20027;-76
2023/04/13 02:35:47;;;;;;;8.82;6.80;;;;;;;5.74;100.00;91169.47;5129995;27;20031;-78
2023/04/13 02:38:16;;;;;;;8.15;6.30;;;;;;;5.70;100.00;91158.16;5146816;27;20125;-78
2023/04/13 02:40:48;;;;;;;8.85;6.75;;;;;;;5.67;100.00;91156.88;5116654;27;20125;-78
2023/04/13 02:43:14;;;;;;;5.28;3.53;;;;;;;5.67;100.00;91148.31;5126402;27;20051;-77
2023/04/13 02:45:41;;;;;;;5.22;3.20;;;;;;;5.69;100.00;91144.38;5129752;27;20018;-78
2023/04/13 02:48:09;;;;;;;6.18;3.10;;;;;;;5.59;100.00;91147.16;5118390;27;20058;-78
2023/04/13 02:50:36;;;;;;;3.58;2.10;;;;;;;5.57;100.00;91155.22;5105722;27;20163;-78
2023/04/13 02:53:06;;;;;;;3.47;2.22;;;;;;;5.58;100.00;91156.78;5128454;27;20104;-78
2023/04/13 02:55:33;;;;;;;6.13;3.50;;;;;;;5.77;100.00;91158.53;5130425;27;20042;-78
2023/04/13 02:58:07;;;;;;;5.35;3.70;;;;;;;5.64;100.00;91160.03;5123909;27;20063;-78
2023/04/13 03:00:33;;;;;;;6.03;4.50;;;;;;;5.56;100.00;91158.91;5112238;27;20034;-78
2023/04/13 03:03:05;;;;;;;6.90;5.05;;;;;;;5.53;100.00;91154.25;5112244;27;20400;-78
2023/04/13 03:05:37;;;;;;;5.18;3.40;;;;;;;5.66;100.00;91147.56;5126047;27;20775;-78
2023/04/13 03:08:05;;;;;;;9.25;6.57;;;;;;;5.57;100.00;91144.84;5114267;27;20508;-78
2023/04/13 03:10:33;;;;;;;9.57;6.40;;;;;;;5.50;100.00;91148.91;5128160;27;20034;-78
2023/04/13 03:12:59;;;;;;;8.60;6.50;;;;;;;5.45;100.00;91151.56;5124524;27;20050;-78
2023/04/13 03:15:25;;;;;;;8.43;5.88;;;;;;;5.43;100.00;91149.28;5107791;27;20035;-78
2023/04/13 03:17:51;;;;;;;7.93;6.10;;;;;;;5.38;100.00;91150.13;5146364;27;20030;-78
2023/04/13 03:20:22;;;;;;;7.18;4.47;;;;;;;5.32;100.00;91151.25;5127324;27;20055;-78
2023/04/13 03:22:58;;;;;;;5.65;3.50;;;;;;;5.31;100.00;91143.75;5127033;27;20076;-78
2023/04/13 03:25:25;;;;;;;5.13;3.25;;;;;;;5.25;100.00;91142.31;5112169;27;20042;-78
2023/04/13 03:27:51;;;;;;;5.90;2.80;;;;;;;5.21;100.00;91144.72;5130581;27;20027;-78
2023/04/13 03:30:18;;;;;;;4.97;3.05;;;;;;;5.15;100.00;91143.25;5127842;27;20042;-78
2023/04/13 03:32:52;;;;;;;5.43;3.28;;;;;;;5.13;100.00;91146.13;5127097;27;20034;-78
2023/04/13 03:35:20;;;;;;;5.75;3.42;;;;;;;5.05;100.00;91133.06;5115538;27;20046;-76
2023/04/13 03:37:45;;;;;;;5.50;3.55;;;;;;;5.02;100.00;91129.19;5143088;27;20026;-76
2023/04/13 03:40:28;;;;;;;5.60;3.63;;;;;;;5.03;100.00;91130.75;5132270;27;20031;-78
2023/04/13 03:42:55;;;;;;;5.88;3.70;;;;;;;4.96;100.00;91122.56;5124906;27;20047;-78
2023/04/13 03:45:23;;;;;;;5.65;3.60;;;;;;;4.94;100.00;91129.84;5111170;27;20102;-78
2023/04/13 03:47:51;;;;;;;5.45;3.40;;;;;;;4.88;100.00;91136.16;5128762;27;20053;-78
2023/04/13 03:50:19;;;;;;;6.00;3.25;;;;;;;4.79;100.00;91142.00;5115582;27;20042;-78
2023/04/13 03:52:44;;;;;;;5.00;3.33;;;;;;;4.74;100.00;91142.06;5106784;27;20039;-78
2023/04/13 03:55:10;;;;;;;4.90;3.40;;;;;;;4.73;100.00;91153.50;5130459;27;20038;-78
2023/04/13 03:57:38;;;;;;;5.40;2.95;;;;;;;4.70;100.00;91141.09;5124012;27;20039;-78
2023/04/13 04:00:12;;;;;;;4.45;3.05;;;;;;;4.70;100.00;91138.50;5127573;27;20058;-78
2023/04/13 04:02:49;;;;;;;4.13;2.40;;;;;;;4.69;100.00;91131.03;5130205;27;20121;-78
2023/04/13 04:05:22;;;;;;;4.07;2.45;;;;;;;4.66;100.00;91132.38;5129522;27;20061;-78
2023/04/13 04:07:56;;;;;;;3.22;2.00;;;;;;;4.68;100.00;91135.41;5094986;27;20038;-78
2023/04/13 04:10:22;;;;;;;3.00;1.70;;;;;;;4.66;100.00;91127.19;5109514;27;20138;-78
2023/04/13 04:12:47;;;;;;;2.45;1.40;;;;;;;4.71;100.00;91128.91;5112618;27;20027;-77
2023/04/13 04:15:13;;;;;;;2.42;1.58;;;;;;;4.74;100.00;91138.72;5129167;27;20039;-78
2023/04/13 04:17:40;;;;;;;2.70;1.60;;;;;;;4.74;100.00;91134.28;5123868;28;20122;-78
2023/04/13 04:20:07;;;;;;;2.65;1.70;;;;;;;4.75;100.00;91138.44;5149456;27;20056;-78
2023/04/13 04:22:35;;;;;;;3.58;1.80;;;;;;;4.76;100.00;91149.56;5124561;27;20018;-78
2023/04/13 04:25:01;;;;;;;5.28;2.90;;;;;;;4.75;100.00;91138.44;5129400;27;20050;-78
2023/04/13 04:27:28;;;;;;;4.50;3.10;;;;;;;4.75;100.00;91130.66;5128542;27;20085;-78
2023/04/13 04:29:59;;;;;;;4.22;2.60;;;;;;;4.77;100.00;91132.97;5130945;27;20054;-78
2023/04/13 04:32:33;;;;;;;4.05;2.45;;;;;;;4.79;100.00;91147.16;5145758;27;20142;-78
2023/04/13 04:35:02;;;;;;;3.92;2.30;;;;;;;4.79;100.00;91147.16;5125047;27;20122;-78
2023/04/13 04:37:29;;;;;;;3.75;2.40;;;;;;;4.79;100.00;91147.16;5125329;27;20038;-78
2023/04/13 04:40:10;;;;;;;4.53;2.22;;;;;;;4.80;100.00;91147.97;5122439;27;20039;-78
2023/04/13 04:42:37;;;;;;;4.50;2.92;;;;;;;4.82;100.00;91152.84;5103961;27;20059;-78
2023/04/13 04:45:08;;;;;;;4.47;2.97;;;;;;;4.86;100.00;91151.22;5129166;27;20058;-78
2023/04/13 04:47:42;;;;;;;4.75;3.05;;;;;;;4.80;100.00;91147.97;5131370;27;20030;-78
2023/04/13 04:50:16;;;;;;;4.70;2.70;;;;;;;4.75;100.00;91151.41;5130078;27;20041;-78
2023/04/13 04:52:44;;;;;;;4.35;2.80;;;;;;;4.71;100.00;91145.25;5129994;27;20451;-78
2023/04/13 04:55:12;;;;;;;4.43;2.88;;;;;;;4.73;100.00;91144.97;5115817;27;20484;-78
2023/04/13 04:57:39;;;;;;;5.70;3.65;;;;;;;4.75;100.00;91146.22;5129107;27;20062;-78
2023/04/13 05:00:14;;;;;;;4.18;2.60;;;;;;;4.78;100.00;91142.28;5126584;27;20035;-77
2023/04/13 05:02:40;;;;;;;3.33;2.00;;;;;;;4.83;100.00;91136.25;5130453;27;20439;-77
2023/04/13 05:05:10;;;;;;;3.75;2.00;;;;;;;4.84;100.00;91135.19;5132316;27;20034;-78
2023/04/13 05:07:37;;;;;;;2.47;1.70;;;;;;;4.87;100.00;91134.63;5112589;27;20053;-78
2023/04/13 05:10:05;;;;;;;2.90;1.85;;;;;;;4.90;100.00;91128.88;5127144;27;20449;-78
2023/04/13 05:12:33;;;;;;;4.10;2.35;;;;;;;4.92;100.00;91139.75;5118880;27;20058;-78
2023/04/13 05:15:00;;;;;;;4.10;2.53;;;;;;;4.95;100.00;91133.97;5146386;27;20038;-78
2023/04/13 05:17:27;;;;;;;4.25;2.58;;;;;;;5.00;100.00;91142.44;5130115;27;20043;-78
2023/04/13 05:19:53;;;;;;;4.30;2.60;;;;;;;5.05;100.00;91141.59;5108031;27;20038;-78
2023/04/13 05:22:22;;;;;;;3.50;2.20;;;;;;;5.07;100.00;91141.31;5110961;27;20035;-78
2023/04/13 05:24:54;;;;;;;3.88;2.53;;;;;;;5.19;100.00;91152.78;5129813;27;20115;-78
2023/04/13 05:27:21;;;;;;;10.38;4.53;;;;;;;5.27;100.00;91145.38;5129689;27;20460;-78
2023/04/13 05:29:47;;;;;;;8.32;5.20;;;;;;;5.35;100.00;91144.72;5129526;27;20048;-78
2023/04/13 05:32:14;;;;;;;8.45;5.22;;;;;;;5.41;100.00;91146.94;5133526;27;20107;-78
2023/04/13 05:34:40;;;;;;;6.45;4.30;;;;;;;5.46;100.00;91127.91;5128488;27;20922;-78
2023/04/13 05:37:19;;;;;;;5.07;2.92;;;;;;;5.52;100.00;91126.78;5134237;27;20039;-78
2023/04/13 05:39:45;;;;;;;1.70;1.30;;;;;;;5.57;100.00;91121.47;5123134;27;20529;-78
2023/04/13 05:42:12;;;;;;;1.10;1.00;;;;;;;5.59;100.00;91127.16;5132361;27;20501;-78
2023/04/13 05:44:43;;;;;;;1.20;1.02;;;;;;;5.65;100.00;91133.00;5129259;27;20106;-79
2023/04/13 05:47:09;;;;;;;0.50;0.50;;;;;;;5.72;100.00;91130.03;5134985;27;20043;-79
2023/04/13 05:49:35;;;;;;;0.98;0.70;;;;;;;5.77;100.00;91132.56;5136389;27;20037;-80
2023/04/13 05:52:02;;;;;;;5.43;3.75;;;;;;;5.83;100.00;91131.38;5138510;27;20053;-79
2023/04/13 05:54:46;;;;;;;13.20;4.57;;;;;;;5.89;100.00;91132.06;5136010;27;20318;-79
2023/04/13 05:57:12;;;;;;;4.68;3.28;;;;;;;6.02;100.00;91132.06;5115064;27;20495;-78
2023/04/13 05:59:43;;;;;;;3.25;1.80;;;;;;;6.18;100.00;91129.94;5116639;27;20060;-80
2023/04/13 06:02:09;;;;;;;1.88;1.15;;;;;;;6.32;100.00;91127.31;5135061;27;20034;-79
2023/04/13 06:04:35;;;;;;;0.73;0.73;;;;;;;6.55;100.00;91135.13;5135240;27;20030;-79
2023/04/13 06:07:01;;;;;;;0.75;0.70;;;;;;;6.79;100.00;91134.88;5155347;27;20447;-79
2023/04/13 06:09:27;;;;;;;0.60;0.60;;;;;;;7.07;100.00;91127.72;5135891;27;20036;-78
2023/04/13 06:11:53;;;;;;;1.10;1.00;;;;;;;7.41;100.00;91134.94;5152214;27;20098;-78
2023/04/13 06:14:19;;;;;;;1.70;1.05;;;;;;;7.71;100.00;91132.63;5117306;27;20030;-79
2023/04/13 06:16:45;;;;;;;1.67;1.20;;;;;;;8.64;100.00;91136.81;5137453;27;20061;-79
2023/04/13 06:19:11;;;;;;;0.80;0.80;;;;;;;10.06;100.00;91129.16;5135329;27;20046;-78
2023/04/13 06:21:37;;;;;;;2.00;1.42;;;;;;;11.04;100.00;91130.53;5127844;27;20023;-81
2023/04/13 06:24:03;;;;;;;3.10;2.08;;;;;;;11.67;93.01;91121.75;5132625;27;20034;-79
2023/04/13 06:26:36;;;;;;;3.78;2.10;;;;;;;12.28;99.11;91121.81;5133370;27;20050;-79
2023/04/13 06:29:02;;;;;;;2.10;1.40;;;;;;;13.68;86.75;91114.38;5134362;27;20059;-81
2023/04/13 06:31:32;;;;;;;4.07;2.70;;;;;;;14.23;85.44;91120.59;5123846;27;20039;-80
2023/04/13 06:34:01;;;;;;;2.22;1.45;;;;;;;14.93;76.52;91117.25;5133430;27;20039;-81
2023/04/13 06:36:31;;;;;;;6.10;3.42;;;;;;;15.27;78.56;91108.88;5135617;27;20026;-81
2023/04/13 06:38:59;;;;;;;5.28;3.90;;;;;;;15.31;80.31;91112.31;5133241;27;20035;-80
2023/04/13 06:41:26;;;;;;;2.92;1.85;;;;;;;15.80;72.98;91109.06;5138800;27;20654;-83
2023/04/13 06:44:08;;;;;;;4.25;2.75;;;;;;;16.41;68.07;91100.25;5133397;27;20611;-80
2023/04/13 06:46:43;;;;;;;6.85;4.35;;;;;;;16.87;73.83;91093.34;5131669;27;20468;-80
2023/04/13 06:49:12;;;;;;;6.10;4.65;;;;;;;17.33;68.95;91103.72;5112160;27;20054;-79
2023/04/13 06:51:40;;;;;;;4.85;3.40;;;;;;;16.21;59.04;91096.94;5111548;27;20034;-81
2023/04/13 06:54:06;;;;;;;3.65;2.00;;;;;;;15.93;58.32;91086.69;5129483;27;20099;-79
2023/04/13 06:56:37;;;;;;;2.90;1.70;;;;;;;15.79;57.75;91094.38;5118658;27;20038;-81
2023/04/13 06:59:03;;;;;;;1.90;1.30;;;;;;;16.07;52.55;91085.38;5133366;27;20597;-80
2023/04/13 07:01:30;;;;;;;3.38;2.13;;;;;;;14.62;54.38;91083.09;5131403;27;20038;-79
2023/04/13 07:03:58;;;;;;;3.22;2.20;;;;;;;14.64;62.58;91089.56;5135126;27;20027;-79
2023/04/13 07:06:25;;;;;;;1.77;1.33;;;;;;;14.18;59.84;91088.50;5120333;27;20031;-79
2023/04/13 07:08:51;;;;;;;2.25;1.40;;;;;;;13.91;54.01;91088.25;5135467;27;20056;-79
2023/04/13 07:11:17;;;;;;;1.35;1.10;;;;;;;13.36;58.47;91088.06;5153030;27;20026;-79
2023/04/13 07:13:43;;;;;;;1.42;1.10;;;;;;;13.56;56.29;91080.28;5129035;27;20038;-79
2023/04/13 07:16:11;;;;;;;1.15;0.93;;;;;;;13.82;54.26;91082.41;5135978;27;20034;-80
2023/04/13 07:18:39;;;;;;;2.88;1.30;;;;;;;13.99;59.85;91081.31;5128408;27;20039;-78
2023/04/13 07:21:06;;;;;;;1.00;0.90;;;;;;;14.19;53.62;91088.19;5110961;27;20038;-78
2023/04/13 07:23:44;;;;;;;0.60;0.60;;;;;;;13.62;52.57;91089.44;5128107;27;20124;-81
2023/04/13 07:26:14;;;;;;;1.77;0.75;;;;;;;14.03;48.28;91087.44;5109590;27;20062;-80
2023/04/13 07:28:40;;;;;;;0.70;0.70;;;;;;;14.40;50.62;91087.88;5108507;27;20031;-79
2023/04/13 07:31:06;;;;;;;0.40;0.40;;;;;;;14.32;46.57;91081.69;5123942;27;20062;-77
2023/04/13 07:33:32;;;;;;;0.60;0.60;;;;;;;13.09;54.61;91073.81;5129677;27;20508;-81
2023/04/13 07:35:58;;;;;;;0.75;0.60;;;;;;;13.69;52.24;91076.47;5130230;27;20046;-80
2023/04/13 07:38:27;;;;;;;0.70;0.70;;;;;;;14.13;51.03;91081.63;5130994;27;20034;-80
2023/04/13 07:40:53;;;;;;;0.50;0.50;;;;;;;14.62;45.34;91073.31;5131979;27;20050;-81
2023/04/13 07:43:19;;;;;;;0.60;0.60;;;;;;;14.77;46.10;91072.53;5131144;27;20076;-80
2023/04/13 07:45:45;;;;;;;0.50;0.50;;;;;;;14.66;45.87;91068.91;5115671;27;20046;-80
2023/04/13 07:48:11;;;;;;;0.60;0.60;;;;;;;14.49;43.11;91071.91;5128746;27;20055;-79
2023/04/13 07:50:41;;;;;;;1.65;0.70;;;;;;;14.40;47.47;91074.72;5130720;27;20086;-80
2023/04/13 07:53:10;;;;;;;0.75;0.70;;;;;;;14.33;48.06;91067.41;5131179;27;20058;-80
2023/04/13 07:55:36;;;;;;;0.40;0.40;;;;;;;14.24;44.14;91061.59;5110345;27;20772;-80
2023/04/13 07:58:03;;;;;;;0.60;0.60;;;;;;;14.42;43.63;91061.22;5119143;27;20035;-79
2023/04/13 08:00:29;;;;;;;0.50;0.50;;;;;;;14.29;43.84;91061.31;5127888;27;20644;-78
2023/04/13 08:02:58;;;;;;;0.60;0.57;;;;;;;14.22;42.54;91053.25;5128422;27;20031;-79
2023/04/13 08:05:26;;;;;;;0.50;0.50;;;;;;;14.22;41.51;91036.72;5113305;27;20041;-81
2023/04/13 08:07:52;;;;;;;1.45;0.60;;;;;;;13.92;41.49;91037.94;5129267;27;20031;-81
2023/04/13 08:10:17;;;;;;;1.27;0.50;;;;;;;14.13;42.23;91036.91;5127765;27;20027;-81
2023/04/13 08:12:43;;;;;;;1.95;0.55;;;;;;;13.81;43.28;91044.84;5111039;27;20127;-80
2023/04/13 08:15:11;;;;;;;0.55;0.55;;;;;;;14.09;41.96;91036.06;5122125;27;20556;-81
2023/04/13 08:17:36;;;;;;;0.57;0.57;;;;;;;14.74;38.83;91033.69;5115297;27;20031;-80
2023/04/13 08:20:06;;;;;;;0.60;0.60;;;;;;;14.91;40.59;91039.66;5158561;27;20026;-81
2023/04/13 08:22:32;;;;;;;0.65;0.65;;;;;;;15.06;37.97;91036.16;5125466;27;20042;-81
2023/04/13 08:24:58;;;;;;;0.60;0.60;;;;;;;14.97;40.13;91030.34;5136442;27;20027;-81
2023/04/13 08:27:25;;;;;;;0.40;0.40;;;;;;;15.16;40.68;91035.63;5107548;27;20031;-80
2023/04/13 08:30:00;;;;;;;0.50;0.50;;;;;;;14.81;39.59;91029.66;5125995;27;20026;-79
2023/04/13 08:32:30;;;;;;;0.93;0.60;;;;;;;15.00;34.67;91027.03;5116454;27;20043;-80
2023/04/13 08:34:57;;;;;;;0.65;0.65;;;;;;;14.84;35.42;91023.69;5135251;27;20088;-79
2023/04/13 08:37:23;;;;;;;0.68;0.68;;;;;;;15.18;38.22;91035.28;5122254;27;20121;-79
2023/04/13 08:39:55;;;;;;;0.40;0.40;;;;;;;15.32;37.48;91032.88;5129935;27;20038;-79
2023/04/13 08:42:22;;;;;;;0.60;0.60;;;;;;;15.31;39.04;91030.59;5131345;27;20072;-79
2023/04/13 08:44:50;;;;;;;0.50;0.50;;;;;;;15.43;34.63;91019.13;5124625;27;20075;-81
2023/04/13 08:47:16;;;;;;;0.50;0.50;;;;;;;15.05;34.30;91024.13;5135203;27;20062;-80
2023/04/13 08:49:45;;;;;;;0.60;0.60;;;;;;;14.76;33.96;91018.28;5137639;27;20034;-80
2023/04/13 08:52:16;;;;;;;0.60;0.60;;;;;;;14.67;35.60;91022.25;5135587;27;20039;-80
2023/04/13 08:54:45;;;;;;;1.42;0.50;;;;;;;14.71;36.24;91023.09;5122555;27;20118;-79
2023/04/13 08:57:19;;;;;;;0.63;0.63;;;;;;;14.71;35.04;91015.19;5133729;27;20054;-79
2023/04/13 08:59:45;;;;;;;0.50;0.50;;;;;;;14.85;36.11;91025.25;5137531;27;20059;-80
2023/04/13 09:02:11;;;;;;;0.38;0.38;;;;;;;14.68;32.82;91006.13;5136832;27;20026;-79
2023/04/13 09:04:49;;;;;;;0.50;0.50;;;;;;;14.34;33.11;91013.69;5134655;27;20034;-80
2023/04/13 09:07:25;;;;;;;0.60;0.60;;;;;;;14.80;35.21;91022.88;5132112;27;20039;-80
2023/04/13 09:09:57;;;;;;;0.60;0.60;;;;;;;14.49;32.52;91014.72;5136918;27;20027;-80
2023/04/13 09:12:24;;;;;;;3.78;0.75;;;;;;;13.81;31.08;91010.66;5132160;27;20034;-80
2023/04/13 09:14:51;;;;;;;0.50;0.50;;;;;;;13.91;35.55;91022.50;5133149;27;20026;-79
2023/04/13 09:17:24;;;;;;;0.50;0.50;;;;;;;14.07;36.83;91014.59;5133579;27;20123;-80
2023/04/13 09:19:52;;;;;;;0.52;0.52;;;;;;;14.44;34.96;91016.88;5123768;27;20037;-79
2023/04/13 09:22:20;;;;;;;0.50;0.50;;;;;;;14.59;31.14;91002.94;5134888;27;20030;-80
2023/04/13 09:24:46;;;;;;;0.70;0.70;;;;;;;14.66;34.13;91008.34;5137761;27;20034;-81
2023/04/13 09:27:25;;;;;;;0.60;0.60;;;;;;;14.07;31.35;91001.44;5135362;27;20046;-79
2023/04/13 09:29:53;;;;;;;0.68;0.68;;;;;;;13.92;31.09;90995.88;5139646;27;20499;-80
2023/04/13 09:32:28;;;;;;;0.98;0.55;;;;;;;13.64;36.79;91014.38;5130555;27;20055;-78
2023/04/13 09:35:03;;;;;;;0.50;0.50;;;;;;;13.83;33.91;90994.53;5156248;27;20075;-78
2023/04/13 09:37:38;;;;;;;1.30;0.50;;;;;;;13.75;33.62;90998.84;5134266;27;20438;-80
2023/04/13 09:40:17;;;;;;;0.60;0.60;;;;;;;13.69;34.13;91005.47;5152587;27;20065;-79
2023/04/13 09:42:56;;;;;;;0.63;0.60;;;;;;;13.59;32.06;91008.63;5130397;27;20110;-79
2023/04/13 09:45:22;;;;;;;0.52;0.52;;;;;;;13.05;33.10;91010.66;5097286;28;20131;-80
2023/04/13 09:47:48;;;;;;;0.77;0.50;;;;;;;13.23;36.26;91015.63;5099245;27;20618;-79
2023/04/13 09:50:27;;;;;;;0.60;0.60;;;;;;;13.21;31.76;91013.31;5106586;28;20126;-80
2023/04/13 09:53:03;;;;;;;0.60;0.60;;;;;;;12.87;34.76;91020.72;5115736;27;20035;-80
2023/04/13 09:55:33;;;;;;;0.60;0.60;;;;;;;13.16;36.46;91020.69;5109831;28;20395;-76
2023/04/13 09:58:14;;;;;;;1.75;0.70;;;;;;;13.20;32.94;91011.81;5104353;28;20645;-80
2023/04/13 10:00:43;;;;;;;0.52;0.52;;;;;;;12.79;30.22;91019.00;5102048;28;20044;-79
2023/04/13 10:03:13;;;;;;;0.50;0.50;;;;;;;12.89;31.89;91009.88;5111812;28;20027;-81
2023/04/13 10:05:41;;;;;;;1.65;0.60;;;;;;;13.06;34.32;91020.09;5105769;28;20032;-81
2023/04/13 10:08:08;;;;;;;0.60;0.60;;;;;;;13.23;34.33;91020.88;5109045;28;20031;-80
2023/04/13 10:10:35;;;;;;;0.65;0.65;;;;;;;13.22;33.11;91014.09;5110764;28;20073;-80
2023/04/13 10:13:15;;;;;;;4.43;1.30;;;;;;;13.39;32.65;91003.28;5106402;28;20248;-80
2023/04/13 10:16:18;;;;;;;0.70;0.70;;;;;;;13.52;34.43;90994.19;5108053;28;20102;-79
2023/04/13 10:19:17;;;;;;;0.70;0.70;;;;;;;13.52;32.71;91007.34;5113320;28;20027;-79
2023/04/13 10:21:46;;;;;;;0.50;0.50;;;;;;;13.07;31.04;90997.97;5104947;28;20028;-79
2023/04/13 10:24:12;;;;;;;0.60;0.60;;;;;;;13.21;30.93;91007.31;5107994;27;20090;-80
2023/04/13 10:26:40;;;;;;;0.63;0.60;;;;;;;13.48;31.28;91005.72;5110482;27;20168;-79
2023/04/13 10:29:07;;;;;;;0.60;0.60;;;;;;;12.88;31.23;91001.25;5108706;28;20076;-78
2023/04/13 10:31:36;;;;;;;0.52;0.52;;;;;;;13.29;33.31;91003.78;5105628;28;20043;-78
2023/04/13 10:34:03;;;;;;;1.38;0.70;;;;;;;13.38;33.64;91001.00;5106639;28;20072;-78
2023/04/13 10:36:43;;;;;;;0.60;0.60;;;;;;;13.38;31.61;91004.38;5105080;28;20420;-80
2023/04/13 10:39:09;;;;;;;0.60;0.60;;;;;;;13.48;32.23;91009.13;5109565;28;20040;-79
2023/04/13 10:41:36;;;;;;;0.70;0.70;;;;;;;13.43;30.95;90993.63;5106441;28;20032;-80
2023/04/13 10:44:05;;;;;;;0.70;0.70;;;;;;;13.75;32.82;90998.84;5128607;27;20066;-80
2023/04/13 10:46:33;;;;;;;0.60;0.60;;;;;;;13.54;32.24;90991.25;5113970;27;20031;-80
2023/04/13 10:49:03;;;;;;;0.70;0.70;;;;;;;13.27;30.00;90992.81;5138699;27;20035;-79
2023/04/13 10:51:42;;;;;;;0.93;0.73;;;;;;;13.45;31.08;90991.41;5134232;27;20023;-80
2023/04/13 10:54:31;;;;;;;0.65;0.65;;;;;;;13.83;31.31;90989.28;5159368;27;20081;-79
2023/04/13 10:57:01;;;;;;;1.40;0.70;;;;;;;14.21;31.25;90985.19;5150219;27;20065;-79
2023/04/13 10:59:36;;;;;;;0.57;0.57;;;;;;;14.01;29.73;90997.56;5142148;27;20117;-80
2023/04/13 11:02:05;;;;;;;0.65;0.65;;;;;;;13.87;29.72;90988.25;5132992;27;20034;-78
2023/04/13 11:04:31;;;;;;;0.50;0.50;;;;;;;13.53;29.91;90993.13;5156149;27;20074;-79
2023/04/13 11:06:57;;;;;;;0.73;0.63;;;;;;;13.29;30.66;91004.53;5133499;27;20031;-80
2023/04/13 11:09:22;;;;;;;0.60;0.60;;;;;;;12.86;28.45;90981.66;5135851;27;20122;-81
2023/04/13 11:11:51;;;;;;;1.55;0.60;;;;;;;12.58;28.69;90998.19;5146133;27;20035;-79
2023/04/13 11:14:21;;;;;;;1.45;0.70;;;;;;;12.31;30.93;91004.19;5147528;27;20027;-80
2023/04/13 11:16:48;;;;;;;0.60;0.60;;;;;;;12.44;31.76;91008.31;5110505;27;20043;-80
2023/04/13 11:19:14;;;;;;;0.50;0.50;;;;;;;12.40;32.70;91010.06;5148720;27;20030;-78
2023/04/13 11:21:39;;;;;;;0.68;0.60;;;;;;;12.44;30.46;91014.31;5127996;27;20026;-78
2023/04/13 11:24:05;;;;;;;0.90;0.55;;;;;;;12.36;29.57;91006.56;5148866;27;20065;-79
2023/04/13 11:26:36;;;;;;;1.15;0.70;;;;;;;12.16;31.11;91006.41;5147567;27;22280;-79
2023/04/13 11:29:03;;;;;;;0.45;0.45;;;;;;;12.16;31.32;91019.53;5141987;27;20047;-78
2023/04/13 11:31:39;;;;;;;0.70;0.70;;;;;;;11.74;28.85;91009.25;5153715;27;20023;-78
2023/04/13 11:34:10;;;;;;;0.73;0.73;;;;;;;11.87;30.80;91023.13;5151752;27;20102;-76
2023/04/13 11:36:39;;;;;;;1.25;0.60;;;;;;;11.90;29.66;91008.63;5152675;27;20109;-79
2023/04/13 11:39:09;;;;;;;0.77;0.70;;;;;;;11.95;31.03;91011.00;5132118;27;20045;-80
2023/04/13 11:41:42;;;;;;;0.70;0.60;;;;;;;12.24;32.17;91017.84;5153738;27;20856;-81